Time;durP1;ratioP1;P1;durP2;ratioP2;P2;SDS_P1;SDS_P2;PMS_P1;PMS_P2;Temp;Humidity;BMP_temperature;BMP_pressure;BME280_temperature;BME280_humidity;BME280_pressure;Samples;Min_cycle;Max_cycle;Signal;HPM_P1;HPM_P2
2022/12/14 00:02:07;;;;;;;;;;;;;;;;;;5084437;28;19944;-60
2022/12/14 00:04:32;;;;;;;;;;;;;;;;;;5087608;28;19998;-60
2022/12/14 00:06:57;;;;;;;;;;;;;;;;;;5087038;28;20382;-60
2022/12/14 00:09:22;;;;;;;;;;;;;;;;;;5084339;28;19924;-60
2022/12/14 00:11:48;;;;;;;;;;;;;;;;;;5084901;28;19928;-62
2022/12/14 00:14:13;;;;;;;;;;;;;;;;;;5084842;28;19924;-62
2022/12/14 00:16:38;;;;;;;;;;;;;;;;;;5082008;28;19928;-61
2022/12/14 00:19:06;;;;;;;;;;;;;;;;;;5083234;28;20015;-60
2022/12/14 00:21:32;;;;;;;;;;;;;;;;;;5086866;28;19924;-57
2022/12/14 00:23:58;;;;;;;;;;;;;;;;;;5084398;28;19989;-58
2022/12/14 00:26:25;;;;;;;;;;;;;;;;;;5080081;28;20506;-56
2022/12/14 00:28:52;;;;;;;;;;;;;;;;;;5064469;28;19931;-57
2022/12/14 00:31:17;;;;;;;;;;;;;;;;;;5079539;28;19931;-55
2022/12/14 00:33:43;;;;;;;;;;;;;;;;;;5079546;28;19946;-56
2022/12/14 00:36:09;;;;;;;;;;;;;;;;;;5082537;28;20382;-59
2022/12/14 00:38:35;;;;;;;;;;;;;;;;;;5085375;28;20393;-60
2022/12/14 00:41:00;;;;;;;;;;;;;;;;;;5082833;28;20240;-60
2022/12/14 00:43:25;;;;;;;;;;;;;;;;;;5076647;28;19931;-59
2022/12/14 00:45:51;;;;;;;;;;;;;;;;;;5082665;28;19924;-61
2022/12/14 00:48:17;;;;;;;;;;;;;;;;;;5079609;28;19924;-61
2022/12/14 00:50:43;;;;;;;;;;;;;;;;;;5077723;28;19924;-63
2022/12/14 00:53:09;;;;;;;;;;;;;;;;;;5080631;28;19931;-64
2022/12/14 00:55:38;;;;;;;;;;;;;;;;;;5084809;28;19924;-65
2022/12/14 00:58:03;;;;;;;;;;;;;;;;;;5080170;28;19928;-64
2022/12/14 01:00:29;;;;;;;;;;;;;;;;;;5082946;28;20437;-64
2022/12/14 01:02:54;;;;;;;;;;;;;;;;;;5082299;28;20012;-64
2022/12/14 01:05:19;;;;;;;;;;;;;;;;;;5084711;28;19924;-64
2022/12/14 01:07:44;;;;;;;;;;;;;;;;;;5083657;28;19947;-58
2022/12/14 01:10:10;;;;;;;;;;;;;;;;;;5082109;28;20015;-57
2022/12/14 01:12:35;;;;;;;;;;;;;;;;;;5082540;28;20378;-58
2022/12/14 01:15:01;;;;;;;;;;;;;;;;;;5079263;28;19920;-59
2022/12/14 01:17:27;;;;;;;;;;;;;;;;;;5077962;28;20421;-61
2022/12/14 01:19:52;;;;;;;;;;;;;;;;;;5084059;28;19928;-59
2022/12/14 01:22:17;;;;;;;;;;;;;;;;;;5082704;28;19938;-69
2022/12/14 01:24:43;;;;;;;;;;;;;;;;;;5078949;28;19936;-69
2022/12/14 01:27:09;;;;;;;;;;;;;;;;;;5084384;28;20414;-64
2022/12/14 01:29:34;;;;;;;;;;;;;;;;;;5074860;28;19928;-64
2022/12/14 01:32:00;;;;;;;;;;;;;;;;;;5087378;28;19924;-60
2022/12/14 01:34:25;;;;;;;;;;;;;;;;;;5079025;28;20019;-60
2022/12/14 01:36:50;;;;;;;;;;;;;;;;;;5082214;28;20003;-60
2022/12/14 01:39:16;;;;;;;;;;;;;;;;;;5079461;28;19963;-60
2022/12/14 01:41:41;;;;;;;;;;;;;;;;;;5079928;28;19997;-59
2022/12/14 01:44:06;;;;;;;;;;;;;;;;;;5079476;28;20011;-60
2022/12/14 01:46:37;;;;;;;;;;;;;;;;;;5084613;28;19997;-61
2022/12/14 01:49:22;;;;;;;;;;;;;;;;;;5081584;28;19947;-61
2022/12/14 01:52:11;;;;;;;;;;;;;;;;;;5082197;28;20391;-58
2022/12/14 01:54:39;;;;;;;;;;;;;;;;;;5080145;28;19924;-57
2022/12/14 01:57:05;;;;;;;;;;;;;;;;;;5084180;28;19927;-59
2022/12/14 01:59:33;;;;;;;;;;;;;;;;;;5085218;28;19927;-59
2022/12/14 02:01:59;;;;;;;;;;;;;;;;;;5087613;28;19974;-60
2022/12/14 02:04:24;;;;;;;;;;;;;;;;;;5079778;28;19936;-60
2022/12/14 02:06:50;;;;;;;;;;;;;;;;;;5084330;28;19935;-59
2022/12/14 02:09:18;;;;;;;;;;;;;;;;;;5082801;28;19924;-59
2022/12/14 02:11:47;;;;;;;;;;;;;;;;;;5082800;28;20492;-60
2022/12/14 02:14:13;;;;;;;;;;;;;;;;;;5080152;28;21988;-60
2022/12/14 02:16:39;;;;;;;;;;;;;;;;;;5086223;28;19932;-62
2022/12/14 02:19:04;;;;;;;;;;;;;;;;;;5086508;28;19977;-60
2022/12/14 02:21:47;;;;;;;;;;;;;;;;;;5088063;28;20340;-59
2022/12/14 02:24:20;;;;;;;;;;;;;;;;;;5084698;28;19928;-60
2022/12/14 02:26:45;;;;;;;;;;;;;;;;;;5084340;28;20022;-59
2022/12/14 02:29:25;;;;;;;;;;;;;;;;;;5083845;28;20026;-60
2022/12/14 02:32:14;;;;;;;;;;;;;;;;;;5084030;28;19924;-60
2022/12/14 02:34:46;;;;;;;;;;;;;;;;;;5084604;28;20391;-60
2022/12/14 02:37:14;;;;;;;;;;;;;;;;;;5081307;28;19932;-59
2022/12/14 02:39:58;;;;;;;;;;;;;;;;;;5081961;28;20295;-60
2022/12/14 02:42:28;;;;;;;;;;;;;;;;;;5084503;28;20015;-61
2022/12/14 02:44:59;;;;;;;;;;;;;;;;;;5080251;28;19963;-60
2022/12/14 02:47:27;;;;;;;;;;;;;;;;;;5082363;28;19939;-60
2022/12/14 02:50:02;;;;;;;;;;;;;;;;;;5083850;28;22635;-60
2022/12/14 02:52:27;;;;;;;;;;;;;;;;;;5084939;28;19973;-60
2022/12/14 02:54:59;;;;;;;;;;;;;;;;;;5082288;28;19927;-60
2022/12/14 02:57:31;;;;;;;;;;;;;;;;;;5082572;28;20043;-60
2022/12/14 02:59:59;;;;;;;;;;;;;;;;;;5082615;28;19920;-60
2022/12/14 03:02:25;;;;;;;;;;;;;;;;;;5078729;28;19928;-61
2022/12/14 03:04:50;;;;;;;;;;;;;;;;;;5083356;28;19993;-60
2022/12/14 03:07:35;;;;;;;;;;;;;;;;;;5081483;28;19932;-60
2022/12/14 03:10:08;;;;;;;;;;;;;;;;;;5082819;28;19964;-60
2022/12/14 03:12:34;;;;;;;;;;;;;;;;;;5083812;28;19936;-59
2022/12/14 03:15:00;;;;;;;;;;;;;;;;;;5082625;28;19924;-62
2022/12/14 03:17:29;;;;;;;;;;;;;;;;;;5082131;28;19920;-60
2022/12/14 03:20:06;;;;;;;;;;;;;;;;;;5084333;28;19932;-61
2022/12/14 03:22:40;;;;;;;;;;;;;;;;;;5083487;28;20368;-61
2022/12/14 03:25:13;;;;;;;;;;;;;;;;;;5087582;28;20398;-60
2022/12/14 03:27:41;;;;;;;;;;;;;;;;;;5082691;28;20001;-60
2022/12/14 03:30:12;;;;;;;;;;;;;;;;;;5082405;28;19928;-59
2022/12/14 03:32:39;;;;;;;;;;;;;;;;;;5060019;28;19989;-60
2022/12/14 03:35:23;;;;;;;;;;;;;;;;;;5063545;28;20025;-61
2022/12/14 03:38:08;;;;;;;;;;;;;;;;;;5059675;28;19943;-60
2022/12/14 03:40:36;;;;;;;;;;;;;;;;;;5080161;28;19974;-60
2022/12/14 03:43:06;;;;;;;;;;;;;;;;;;5081468;28;19928;-60
2022/12/14 03:45:41;;;;;;;;;;;;;;;;;;5083376;28;19987;-61
2022/12/14 03:48:25;;;;;;;;;;;;;;;;;;5082014;28;19977;-61
2022/12/14 03:50:55;;;;;;;;;;;;;;;;;;5082423;28;19920;-59
2022/12/14 03:53:21;;;;;;;;;;;;;;;;;;5083961;28;19924;-61
2022/12/14 03:56:00;;;;;;;;;;;;;;;;;;5085469;28;19931;-61
2022/12/14 03:58:26;;;;;;;;;;;;;;;;;;5078400;28;20059;-61
2022/12/14 04:01:10;;;;;;;;;;;;;;;;;;5073962;28;20007;-61
2022/12/14 04:03:47;;;;;;;;;;;;;;;;;;5078419;28;19928;-60
2022/12/14 04:06:33;;;;;;;;;;;;;;;;;;5080610;28;19938;-60
2022/12/14 04:08:58;;;;;;;;;;;;;;;;;;5064412;28;19927;-61
2022/12/14 04:19:58;;;;;;;;;;;;;;;;;;5082808;28;19926;-61
2022/12/14 04:22:25;;;;;;;;;;;;;;;;;;5082634;28;19934;-60
2022/12/14 04:27:48;;;;;;;;;;;;;;;;;;5079356;28;19939;-61
2022/12/14 04:30:13;;;;;;;;;;;;;;;;;;5079134;28;20334;-60
2022/12/14 04:32:47;;;;;;;;;;;;;;;;;;5082365;28;19928;-62
2022/12/14 04:35:16;;;;;;;;;;;;;;;;;;5079350;28;19924;-62
2022/12/14 04:37:43;;;;;;;;;;;;;;;;;;5080574;28;19921;-60
2022/12/14 04:40:11;;;;;;;;;;;;;;;;;;5076835;28;19933;-61
2022/12/14 04:42:42;;;;;;;;;;;;;;;;;;5081667;28;19977;-61
2022/12/14 04:45:10;;;;;;;;;;;;;;;;;;5079153;28;20467;-60
2022/12/14 04:47:39;;;;;;;;;;;;;;;;;;5077981;28;20345;-61
2022/12/14 04:50:08;;;;;;;;;;;;;;;;;;5082560;28;20341;-62
2022/12/14 04:52:46;;;;;;;;;;;;;;;;;;5079684;28;20321;-60
2022/12/14 04:55:16;;;;;;;;;;;;;;;;;;5076748;28;19924;-60
2022/12/14 04:57:54;;;;;;;;;;;;;;;;;;5074768;28;19923;-61
2022/12/14 05:00:20;;;;;;;;;;;;;;;;;;5065784;28;19925;-60
2022/12/14 05:02:54;;;;;;;;;;;;;;;;;;5074848;28;19924;-60
2022/12/14 05:05:46;;;;;;;;;;;;;;;;;;5076460;28;19939;-60
2022/12/14 05:08:19;;;;;;;;;;;;;;;;;;5080997;28;20405;-61
2022/12/14 05:10:51;;;;;;;;;;;;;;;;;;5080873;28;19924;-61
2022/12/14 05:13:34;;;;;;;;;;;;;;;;;;5082143;28;20401;-60
2022/12/14 05:15:59;;;;;;;;;;;;;;;;;;5081418;28;19935;-60
2022/12/14 05:18:25;;;;;;;;;;;;;;;;;;5081163;28;19932;-61
2022/12/14 05:20:50;;;;;;;;;;;;;;;;;;5084293;28;19927;-59
2022/12/14 05:23:16;;;;;;;;;;;;;;;;;;5079906;28;20382;-63
2022/12/14 05:25:41;;;;;;;;;;;;;;;;;;5085903;28;19920;-63
2022/12/14 05:28:07;;;;;;;;;;;;;;;;;;5082644;28;19934;-60
2022/12/14 05:30:33;;;;;;;;;;;;;;;;;;5088438;28;20019;-60
2022/12/14 05:32:58;;;;;;;;;;;;;;;;;;5083055;28;19932;-61
2022/12/14 05:35:23;;;;;;;;;;;;;;;;;;5087284;28;21402;-60
2022/12/14 05:37:49;;;;;;;;;;;;;;;;;;5085301;28;20290;-60
2022/12/14 05:40:14;;;;;;;;;;;;;;;;;;5085466;28;19927;-59
2022/12/14 05:42:40;;;;;;;;;;;;;;;;;;5084818;28;19953;-60
2022/12/14 05:45:05;;;;;;;;;;;;;;;;;;5086000;28;20490;-61
2022/12/14 05:47:31;;;;;;;;;;;;;;;;;;5088452;28;19972;-60
2022/12/14 05:49:56;;;;;;;;;;;;;;;;;;5086154;28;19927;-60
2022/12/14 05:52:23;;;;;;;;;;;;;;;;;;5085149;28;19977;-60
2022/12/14 05:54:48;;;;;;;;;;;;;;;;;;5087996;28;19924;-61
2022/12/14 05:57:14;;;;;;;;;;;;;;;;;;5088482;28;19932;-60
2022/12/14 05:59:39;;;;;;;;;;;;;;;;;;5087791;28;19932;-61
2022/12/14 06:02:04;;;;;;;;;;;;;;;;;;5081510;28;19932;-59
2022/12/14 06:04:30;;;;;;;;;;;;;;;;;;5090544;28;20030;-57
2022/12/14 06:06:55;;;;;;;;;;;;;;;;;;5080117;28;19955;-61
2022/12/14 06:09:21;;;;;;;;;;;;;;;;;;5081516;28;19928;-62
2022/12/14 06:11:47;;;;;;;;;;;;;;;;;;5082695;28;19928;-62
2022/12/14 06:14:12;;;;;;;;;;;;;;;;;;5079093;28;20370;-61
2022/12/14 06:16:41;;;;;;;;;;;;;;;;;;5083383;28;19939;-60
2022/12/14 06:19:07;;;;;;;;;;;;;;;;;;5084390;28;19931;-60
2022/12/14 06:21:34;;;;;;;;;;;;;;;;;;5085943;28;19932;-61
2022/12/14 06:23:59;;;;;;;;;;;;;;;;;;5081388;28;20010;-60
2022/12/14 06:26:25;;;;;;;;;;;;;;;;;;5085931;28;20011;-60
2022/12/14 06:28:51;;;;;;;;;;;;;;;;;;5083711;28;19924;-61
2022/12/14 06:31:18;;;;;;;;;;;;;;;;;;5083704;28;19924;-60
2022/12/14 06:33:43;;;;;;;;;;;;;;;;;;5088839;28;20477;-60
2022/12/14 06:36:17;;;;;;;;;;;;;;;;;;5084408;28;19936;-61
2022/12/14 06:38:43;;;;;;;;;;;;;;;;;;5089084;28;19931;-60
2022/12/14 06:41:08;;;;;;;;;;;;;;;;;;5083699;28;19932;-60
2022/12/14 06:43:33;;;;;;;;;;;;;;;;;;5085429;28;19943;-59
2022/12/14 06:45:59;;;;;;;;;;;;;;;;;;5085064;28;19932;-60
2022/12/14 06:48:24;;;;;;;;;;;;;;;;;;5079013;28;19932;-60
2022/12/14 06:50:49;;;;;;;;;;;;;;;;;;5100746;28;19964;-60
2022/12/14 06:53:14;;;;;;;;;;;;;;;;;;5084697;28;20031;-60
2022/12/14 06:55:40;;;;;;;;;;;;;;;;;;5081011;28;19955;-60
2022/12/14 06:58:05;;;;;;;;;;;;;;;;;;5082255;28;19935;-60
2022/12/14 07:00:30;;;;;;;;;;;;;;;;;;5085878;28;19978;-60
2022/12/14 07:02:56;;;;;;;;;;;;;;;;;;5082977;28;20391;-60
2022/12/14 07:05:21;;;;;;;;;;;;;;;;;;5077823;28;20314;-60
2022/12/14 07:07:46;;;;;;;;;;;;;;;;;;5084601;28;20546;-62
2022/12/14 07:10:12;;;;;;;;;;;;;;;;;;5079815;28;19924;-62
2022/12/14 07:12:37;;;;;;;;;;;;;;;;;;5081762;28;19970;-61
2022/12/14 07:15:03;;;;;;;;;;;;;;;;;;5086326;28;19928;-60
2022/12/14 07:17:28;;;;;;;;;;;;;;;;;;5081881;28;20576;-60
2022/12/14 07:19:54;;;;;;;;;;;;;;;;;;5087716;28;19939;-59
2022/12/14 07:22:19;;;;;;;;;;;;;;;;;;5080251;28;19932;-61
2022/12/14 07:24:45;;;;;;;;;;;;;;;;;;5087005;28;19977;-60
2022/12/14 07:27:10;;;;;;;;;;;;;;;;;;5080911;28;20399;-61
2022/12/14 07:29:35;;;;;;;;;;;;;;;;;;5086550;28;19928;-60
2022/12/14 07:32:01;;;;;;;;;;;;;;;;;;5084344;28;19924;-60
2022/12/14 07:34:27;;;;;;;;;;;;;;;;;;5082956;28;19970;-60
2022/12/14 07:36:52;;;;;;;;;;;;;;;;;;5084570;28;19980;-60
2022/12/14 07:39:18;;;;;;;;;;;;;;;;;;5086448;28;19928;-60
2022/12/14 07:41:44;;;;;;;;;;;;;;;;;;5082480;28;19981;-60
2022/12/14 07:44:10;;;;;;;;;;;;;;;;;;5086981;28;20311;-61
2022/12/14 07:46:35;;;;;;;;;;;;;;;;;;5086059;28;19928;-62
2022/12/14 07:49:01;;;;;;;;;;;;;;;;;;5098219;28;20364;-60
2022/12/14 07:51:28;;;;;;;;;;;;;;;;;;5081146;28;19947;-60
2022/12/14 07:53:53;;;;;;;;;;;;;;;;;;5084659;28;20275;-60
2022/12/14 07:56:20;;;;;;;;;;;;;;;;;;5085685;28;19931;-60
2022/12/14 07:58:46;;;;;;;;;;;;;;;;;;5082126;28;20361;-60
2022/12/14 08:01:13;;;;;;;;;;;;;;;;;;5092424;28;20007;-60
2022/12/14 08:03:40;;;;;;;;;;;;;;;;;;5085683;28;20352;-62
2022/12/14 08:06:06;;;;;;;;;;;;;;;;;;5081188;28;19959;-60
2022/12/14 08:08:31;;;;;;;;;;;;;;;;;;5083579;28;20302;-60
2022/12/14 08:10:57;;;;;;;;;;;;;;;;;;5085295;28;19931;-60
2022/12/14 08:13:22;;;;;;;;;;;;;;;;;;5079176;28;19923;-61
2022/12/14 08:15:47;;;;;;;;;;;;;;;;;;5080616;28;19943;-61
2022/12/14 08:18:13;;;;;;;;;;;;;;;;;;5086707;28;20302;-61
2022/12/14 08:20:38;;;;;;;;;;;;;;;;;;5077699;28;19935;-53
2022/12/14 08:23:03;;;;;;;;;;;;;;;;;;5094055;28;19931;-53
2022/12/14 08:25:29;;;;;;;;;;;;;;;;;;5086715;28;19920;-56
2022/12/14 08:27:54;;;;;;;;;;;;;;;;;;5080671;28;19932;-52
2022/12/14 08:30:19;;;;;;;;;;;;;;;;;;5080860;28;19967;-54
2022/12/14 08:32:44;;;;;;;;;;;;;;;;;;5079421;28;19939;-53
2022/12/14 08:35:10;;;;;;;;;;;;;;;;;;5088860;28;19931;-52
2022/12/14 08:37:35;;;;;;;;;;;;;;;;;;5081820;28;19932;-54
2022/12/14 08:40:00;;;;;;;;;;;;;;;;;;5084566;28;20349;-56
2022/12/14 08:42:26;;;;;;;;;;;;;;;;;;5081446;28;19928;-54
2022/12/14 08:44:51;;;;;;;;;;;;;;;;;;5086977;28;20065;-55
2022/12/14 08:47:16;;;;;;;;;;;;;;;;;;5088615;28;19935;-51
2022/12/14 08:49:47;;;;;;;;;;;;;;;;;;5079822;28;20450;-54
2022/12/14 08:52:13;;;;;;;;;;;;;;;;;;5086101;28;19947;-53
2022/12/14 08:54:38;;;;;;;;;;;;;;;;;;5081493;28;19932;-57
2022/12/14 08:57:03;;;;;;;;;;;;;;;;;;5088260;28;19928;-52
2022/12/14 08:59:29;;;;;;;;;;;;;;;;;;5077223;28;19932;-53
2022/12/14 09:01:54;;;;;;;;;;;;;;;;;;5082678;28;20452;-55
2022/12/14 09:04:20;;;;;;;;;;;;;;;;;;5087476;28;19920;-55
2022/12/14 09:06:45;;;;;;;;;;;;;;;;;;5088580;28;20395;-60
2022/12/14 09:09:10;;;;;;;;;;;;;;;;;;5086184;28;19928;-64
2022/12/14 09:11:36;;;;;;;;;;;;;;;;;;5084877;28;19940;-62
2022/12/14 09:14:01;;;;;;;;;;;;;;;;;;5081453;28;19947;-60
2022/12/14 09:16:26;;;;;;;;;;;;;;;;;;5086250;28;19924;-61
2022/12/14 09:18:52;;;;;;;;;;;;;;;;;;5087395;28;19935;-59
2022/12/14 09:21:17;;;;;;;;;;;;;;;;;;5083608;28;20409;-61
2022/12/14 09:23:43;;;;;;;;;;;;;;;;;;5087645;28;20444;-61
2022/12/14 09:26:13;;;;;;;;;;;;;;;;;;5088003;28;19970;-60
2022/12/14 09:28:40;;;;;;;;;;;;;;;;;;5084046;28;19936;-61
2022/12/14 09:31:06;;;;;;;;;;;;;;;;;;5074181;28;19928;-61
2022/12/14 09:33:32;;;;;;;;;;;;;;;;;;5075970;28;20348;-61
2022/12/14 09:36:01;;;;;;;;;;;;;;;;;;5088668;28;19928;-60
2022/12/14 09:38:26;;;;;;;;;;;;;;;;;;5079202;28;19947;-62
2022/12/14 09:40:56;;;;;;;;;;;;;;;;;;5084627;28;19920;-61
2022/12/14 09:43:30;;;;;;;;;;;;;;;;;;5082955;28;19920;-60
2022/12/14 09:45:59;;;;;;;;;;;;;;;;;;5087577;28;19940;-60
2022/12/14 09:48:25;;;;;;;;;;;;;;;;;;5088463;28;19932;-60
2022/12/14 09:50:51;;;;;;;;;;;;;;;;;;5085529;28;19977;-60
2022/12/14 09:53:18;;;;;;;;;;;;;;;;;;5085148;28;19939;-60
2022/12/14 09:55:45;;;;;;;;;;;;;;;;;;5088439;28;20366;-65
2022/12/14 09:58:11;;;;;;;;;;;;;;;;;;5083564;28;20303;-62
2022/12/14 10:00:39;;;;;;;;;;;;;;;;;;5082384;28;19928;-60
2022/12/14 10:03:04;;;;;;;;;;;;;;;;;;5083093;28;20429;-60
2022/12/14 10:05:48;;;;;;;;;;;;;;;;;;5079561;28;20014;-60
2022/12/14 10:08:25;;;;;;;;;;;;;;;;;;5084366;28;19928;-60
2022/12/14 10:10:55;;;;;;;;;;;;;;;;;;5079081;28;19931;-61
2022/12/14 10:13:29;;;;;;;;;;;;;;;;;;5087109;28;19926;-61
2022/12/14 10:16:13;;;;;;;;;;;;;;;;;;5086911;28;19974;-61
2022/12/14 10:18:38;;;;;;;;;;;;;;;;;;5087607;28;19924;-61
2022/12/14 10:21:11;;;;;;;;;;;;;;;;;;5087398;28;19946;-61
2022/12/14 10:23:38;;;;;;;;;;;;;;;;;;5085627;28;19931;-61
2022/12/14 10:26:08;;;;;;;;;;;;;;;;;;5087788;28;20420;-61
2022/12/14 10:28:50;;;;;;;;;;;;;;;;;;5080265;28;20354;-60
2022/12/14 10:31:22;;;;;;;;;;;;;;;;;;5083320;28;20373;-61
2022/12/14 10:33:49;;;;;;;;;;;;;;;;;;5082478;28;19939;-62
2022/12/14 10:36:25;;;;;;;;;;;;;;;;;;5092479;28;19928;-60
2022/12/14 10:38:58;;;;;;;;;;;;;;;;;;5085462;28;19931;-61
2022/12/14 10:41:29;;;;;;;;;;;;;;;;;;5088020;28;20010;-61
2022/12/14 10:43:57;;;;;;;;;;;;;;;;;;5086650;28;20039;-61
2022/12/14 10:46:32;;;;;;;;;;;;;;;;;;5080941;28;19951;-61
2022/12/14 10:49:18;;;;;;;;;;;;;;;;;;5085202;28;19924;-61
2022/12/14 10:51:56;;;;;;;;;;;;;;;;;;5083893;28;19971;-61
2022/12/14 10:54:32;;;;;;;;;;;;;;;;;;5087950;28;20290;-60
2022/12/14 10:56:58;;;;;;;;;;;;;;;;;;5086585;28;19928;-61
2022/12/14 10:59:25;;;;;;;;;;;;;;;;;;5085517;28;20053;-61
2022/12/14 11:01:52;;;;;;;;;;;;;;;;;;5087332;28;20198;-61
2022/12/14 11:04:36;;;;;;;;;;;;;;;;;;5080277;28;19935;-62
2022/12/14 11:07:03;;;;;;;;;;;;;;;;;;5083141;28;19924;-62
2022/12/14 11:09:28;;;;;;;;;;;;;;;;;;5081556;28;19924;-61
2022/12/14 11:12:05;;;;;;;;;;;;;;;;;;5083815;28;19932;-60
2022/12/14 11:14:31;;;;;;;;;;;;;;;;;;5084430;28;19939;-61
2022/12/14 11:16:56;;;;;;;;;;;;;;;;;;5086034;28;19928;-60
2022/12/14 11:19:23;;;;;;;;;;;;;;;;;;5089307;28;19931;-61
2022/12/14 11:21:49;;;;;;;;;;;;;;;;;;5080419;28;20004;-61
2022/12/14 11:24:25;;;;;;;;;;;;;;;;;;5073396;28;20898;-55
2022/12/14 11:26:54;;;;;;;;;;;;;;;;;;5078802;28;19932;-60
2022/12/14 11:29:27;;;;;;;;;;;;;;;;;;5076418;28;19932;-59
2022/12/14 11:31:53;;;;;;;;;;;;;;;;;;5082621;28;19924;-56
2022/12/14 11:34:19;;;;;;;;;;;;;;;;;;5085166;28;20808;-58
2022/12/14 11:36:44;;;;;;;;;;;;;;;;;;5083500;28;20287;-61
2022/12/14 11:39:13;;;;;;;;;;;;;;;;;;5081341;28;19927;-61
2022/12/14 11:41:43;;;;;;;;;;;;;;;;;;5076023;28;19932;-61
2022/12/14 11:44:29;;;;;;;;;;;;;;;;;;5080906;28;20031;-58
2022/12/14 11:46:57;;;;;;;;;;;;;;;;;;5079712;28;19928;-59
2022/12/14 11:49:37;;;;;;;;;;;;;;;;;;5078363;28;20011;-62
2022/12/14 11:52:08;;;;;;;;;;;;;;;;;;5086071;28;20350;-59
2022/12/14 11:54:35;;;;;;;;;;;;;;;;;;5079219;28;20133;-61
2022/12/14 11:57:00;;;;;;;;;;;;;;;;;;5079093;28;20379;-64
2022/12/14 11:59:28;;;;;;;;;;;;;;;;;;5085125;28;19931;-63
2022/12/14 12:01:55;;;;;;;;;;;;;;;;;;5079750;28;19934;-60
2022/12/14 12:04:21;;;;;;;;;;;;;;;;;;5080250;28;20003;-60
2022/12/14 12:06:46;;;;;;;;;;;;;;;;;;5081557;28;19924;-60
2022/12/14 12:09:26;;;;;;;;;;;;;;;;;;5076819;28;20608;-61
2022/12/14 12:11:51;;;;;;;;;;;;;;;;;;5077173;28;19928;-61
2022/12/14 12:14:32;;;;;;;;;;;;;;;;;;5084501;28;19949;-59
2022/12/14 12:16:58;;;;;;;;;;;;;;;;;;5080460;28;19986;-60
2022/12/14 12:19:31;;;;;;;;;;;;;;;;;;5083205;28;19968;-60
2022/12/14 12:21:59;;;;;;;;;;;;;;;;;;5083523;28;20019;-60
2022/12/14 12:24:27;;;;;;;;;;;;;;;;;;5092767;28;19970;-55
2022/12/14 12:26:54;;;;;;;;;;;;;;;;;;5073258;28;19974;-59
2022/12/14 12:29:19;;;;;;;;;;;;;;;;;;5079661;28;20017;-61
2022/12/14 12:32:04;;;;;;;;;;;;;;;;;;5077348;28;19927;-63
2022/12/14 12:34:37;;;;;;;;;;;;;;;;;;5081959;28;19928;-61
2022/12/14 12:37:07;;;;;;;;;;;;;;;;;;5084376;28;19941;-60
2022/12/14 12:39:34;;;;;;;;;;;;;;;;;;5085518;28;20454;-61
2022/12/14 12:42:18;;;;;;;;;;;;;;;;;;5083160;28;19932;-58
2022/12/14 12:44:46;;;;;;;;;;;;;;;;;;5076806;28;19935;-58
2022/12/14 12:47:15;;;;;;;;;;;;;;;;;;5079960;28;19923;-55
2022/12/14 12:49:40;;;;;;;;;;;;;;;;;;5066340;28;20021;-53
2022/12/14 12:52:13;;;;;;;;;;;;;;;;;;5073436;28;20014;-52
2022/12/14 12:54:42;;;;;;;;;;;;;;;;;;5073638;28;20457;-56
2022/12/14 12:57:10;;;;;;;;;;;;;;;;;;5077045;28;19943;-54
2022/12/14 12:59:38;;;;;;;;;;;;;;;;;;5066921;28;19984;-53
2022/12/14 13:02:26;;;;;;;;;;;;;;;;;;5068562;28;19966;-51
2022/12/14 13:04:52;;;;;;;;;;;;;;;;;;5056868;28;20047;-52
2022/12/14 13:07:23;;;;;;;;;;;;;;;;;;5075063;28;20454;-50
2022/12/14 13:09:50;;;;;;;;;;;;;;;;;;5074224;28;19932;-57
2022/12/14 13:12:21;;;;;;;;;;;;;;;;;;5074041;28;20504;-61
2022/12/14 13:14:48;;;;;;;;;;;;;;;;;;5075177;28;19932;-60
2022/12/14 13:17:33;;;;;;;;;;;;;;;;;;5076608;28;19928;-60
2022/12/14 13:20:01;;;;;;;;;;;;;;;;;;5075386;28;19993;-62
2022/12/14 13:22:30;;;;;;;;;;;;;;;;;;5078814;28;20017;-60
2022/12/14 13:24:57;;;;;;;;;;;;;;;;;;5078871;28;20017;-60
2022/12/14 13:27:41;;;;;;;;;;;;;;;;;;5085396;28;19932;-63
2022/12/14 13:30:13;;;;;;;;;;;;;;;;;;5074195;28;19929;-60
2022/12/14 13:32:58;;;;;;;;;;;;;;;;;;5079991;28;19924;-60
2022/12/14 13:35:26;;;;;;;;;;;;;;;;;;5080641;28;19976;-60
2022/12/14 13:37:51;;;;;;;;;;;;;;;;;;5080640;28;19951;-60
2022/12/14 13:40:25;;;;;;;;;;;;;;;;;;5079646;28;19967;-60
2022/12/14 13:43:09;;;;;;;;;;;;;;;;;;5079175;28;20009;-59
2022/12/14 13:45:40;;;;;;;;;;;;;;;;;;5082598;28;19932;-59
2022/12/14 13:48:07;;;;;;;;;;;;;;;;;;5085073;28;19928;-60
2022/12/14 13:50:37;;;;;;;;;;;;;;;;;;5081624;28;19924;-60
2022/12/14 13:53:14;;;;;;;;;;;;;;;;;;5082517;28;20393;-61
2022/12/14 13:55:50;;;;;;;;;;;;;;;;;;5082426;28;19924;-63
2022/12/14 13:58:34;;;;;;;;;;;;;;;;;;5083536;28;19969;-64
2022/12/14 14:01:01;;;;;;;;;;;;;;;;;;5084577;28;20038;-61
2022/12/14 14:03:32;;;;;;;;;;;;;;;;;;5085506;28;19924;-60
2022/12/14 14:06:13;;;;;;;;;;;;;;;;;;5079913;28;19993;-60
2022/12/14 14:08:40;;;;;;;;;;;;;;;;;;5085235;28;19928;-60
2022/12/14 14:11:20;;;;;;;;;;;;;;;;;;5082450;28;19924;-60
2022/12/14 14:13:45;;;;;;;;;;;;;;;;;;5084906;28;19926;-60
2022/12/14 14:16:13;;;;;;;;;;;;;;;;;;5085917;28;19928;-62
2022/12/14 14:18:51;;;;;;;;;;;;;;;;;;5087177;28;19924;-62
2022/12/14 14:21:19;;;;;;;;;;;;;;;;;;5088471;28;19924;-62
2022/12/14 14:23:57;;;;;;;;;;;;;;;;;;5068571;28;20454;-61
2022/12/14 14:26:27;;;;;;;;;;;;;;;;;;5077499;28;19940;-62
2022/12/14 14:29:11;;;;;;;;;;;;;;;;;;5082635;28;20557;-62
2022/12/14 14:31:46;;;;;;;;;;;;;;;;;;5079499;28;19927;-61
2022/12/14 14:34:16;;;;;;;;;;;;;;;;;;5086885;28;19928;-61
2022/12/14 14:36:43;;;;;;;;;;;;;;;;;;5085441;28;19920;-68
2022/12/14 14:39:26;;;;;;;;;;;;;;;;;;5081664;28;19993;-68
2022/12/14 14:41:51;;;;;;;;;;;;;;;;;;5081225;28;19935;-68
2022/12/14 14:44:22;;;;;;;;;;;;;;;;;;5080462;28;19932;-68
2022/12/14 14:46:48;;;;;;;;;;;;;;;;;;5075154;28;19928;-68
2022/12/14 14:49:33;;;;;;;;;;;;;;;;;;5084760;28;19940;-68
2022/12/14 14:52:17;;;;;;;;;;;;;;;;;;5084827;28;20397;-68
2022/12/14 14:54:42;;;;;;;;;;;;;;;;;;5081900;28;19924;-69
2022/12/14 14:57:27;;;;;;;;;;;;;;;;;;5084817;28;19924;-69
2022/12/14 14:59:59;;;;;;;;;;;;;;;;;;5081367;28;19928;-68
2022/12/14 15:02:28;;;;;;;;;;;;;;;;;;5087068;28;19979;-68
2022/12/14 15:04:55;;;;;;;;;;;;;;;;;;5081072;28;20015;-70
2022/12/14 15:07:22;;;;;;;;;;;;;;;;;;5084083;28;19928;-68
2022/12/14 15:09:51;;;;;;;;;;;;;;;;;;5081237;28;19924;-69
2022/12/14 15:12:26;;;;;;;;;;;;;;;;;;5081314;28;19967;-68
2022/12/14 15:14:56;;;;;;;;;;;;;;;;;;5080397;28;20310;-68
2022/12/14 15:17:23;;;;;;;;;;;;;;;;;;5078644;28;19932;-69
2022/12/14 15:19:49;;;;;;;;;;;;;;;;;;5079670;28;19939;-68
2022/12/14 15:22:17;;;;;;;;;;;;;;;;;;5073330;28;20019;-66
2022/12/14 15:24:44;;;;;;;;;;;;;;;;;;5087303;28;19982;-66
2022/12/14 15:27:11;;;;;;;;;;;;;;;;;;5081107;28;19932;-65
2022/12/14 15:29:36;;;;;;;;;;;;;;;;;;5077369;28;20169;-66
2022/12/14 15:32:03;;;;;;;;;;;;;;;;;;5083470;28;19973;-62
2022/12/14 15:34:28;;;;;;;;;;;;;;;;;;5099070;28;19932;-64
2022/12/14 15:36:54;;;;;;;;;;;;;;;;;;5081864;28;19981;-61
2022/12/14 15:39:31;;;;;;;;;;;;;;;;;;5082097;28;19949;-61
2022/12/14 15:42:23;;;;;;;;;;;;;;;;;;5087270;28;19928;-62
2022/12/14 15:44:52;;;;;;;;;;;;;;;;;;5077951;28;19959;-64
2022/12/14 15:47:22;;;;;;;;;;;;;;;;;;5080588;28;19932;-62
2022/12/14 15:49:47;;;;;;;;;;;;;;;;;;5075674;28;19939;-63
2022/12/14 15:52:13;;;;;;;;;;;;;;;;;;5080527;28;19924;-69
2022/12/14 15:54:40;;;;;;;;;;;;;;;;;;5072826;28;20019;-69
2022/12/14 15:57:11;;;;;;;;;;;;;;;;;;5076209;28;20366;-69
2022/12/14 15:59:36;;;;;;;;;;;;;;;;;;5079270;28;19932;-67
2022/12/14 16:02:17;;;;;;;;;;;;;;;;;;5084264;28;19931;-61
2022/12/14 16:04:43;;;;;;;;;;;;;;;;;;5078051;28;19928;-61
2022/12/14 16:07:14;;;;;;;;;;;;;;;;;;5082799;28;19927;-63
2022/12/14 16:09:42;;;;;;;;;;;;;;;;;;5078380;28;19982;-63
2022/12/14 16:12:16;;;;;;;;;;;;;;;;;;5075935;28;19924;-63
2022/12/14 16:14:45;;;;;;;;;;;;;;;;;;5079627;28;19986;-63
2022/12/14 16:17:11;;;;;;;;;;;;;;;;;;5071751;28;19998;-63
2022/12/14 16:19:37;;;;;;;;;;;;;;;;;;5083209;28;19931;-63
2022/12/14 16:22:08;;;;;;;;;;;;;;;;;;5081799;28;19924;-64
2022/12/14 16:24:34;;;;;;;;;;;;;;;;;;5079536;28;19924;-65
2022/12/14 16:27:00;;;;;;;;;;;;;;;;;;5079451;28;19932;-65
2022/12/14 16:29:27;;;;;;;;;;;;;;;;;;5079829;28;20001;-65
2022/12/14 16:32:03;;;;;;;;;;;;;;;;;;5079722;28;19928;-64
2022/12/14 16:34:29;;;;;;;;;;;;;;;;;;5074801;28;19946;-65
2022/12/14 16:37:03;;;;;;;;;;;;;;;;;;5081064;28;19924;-62
2022/12/14 16:39:43;;;;;;;;;;;;;;;;;;5076936;28;20019;-62
2022/12/14 16:42:17;;;;;;;;;;;;;;;;;;5082663;28;20379;-68
2022/12/14 16:44:45;;;;;;;;;;;;;;;;;;5077495;28;19975;-69
2022/12/14 16:47:14;;;;;;;;;;;;;;;;;;5074034;28;20357;-60
2022/12/14 16:49:50;;;;;;;;;;;;;;;;;;5076199;28;20353;-61
2022/12/14 16:52:25;;;;;;;;;;;;;;;;;;5075316;28;19930;-63
2022/12/14 16:55:14;;;;;;;;;;;;;;;;;;5069201;28;19935;-63
2022/12/14 16:57:48;;;;;;;;;;;;;;;;;;5076396;28;19935;-61
2022/12/14 17:00:22;;;;;;;;;;;;;;;;;;5076135;28;19928;-60
2022/12/14 17:03:01;;;;;;;;;;;;;;;;;;5077917;28;19927;-61
2022/12/14 17:05:29;;;;;;;;;;;;;;;;;;5076718;28;20275;-60
2022/12/14 17:07:55;;;;;;;;;;;;;;;;;;5077017;28;20377;-60
2022/12/14 17:10:22;;;;;;;;;;;;;;;;;;5076714;28;20473;-60
2022/12/14 17:12:48;;;;;;;;;;;;;;;;;;5073935;28;19920;-62